createdAt,value
2023-02-13T00:00:23.719Z,39.65
2023-02-13T00:02:25.749Z,39.97
2023-02-13T00:04:27.785Z,36.95
2023-02-13T00:06:29.743Z,39.08
2023-02-13T00:08:31.778Z,34.75
2023-02-13T00:10:33.727Z,33.03
2023-02-13T00:12:36.023Z,37.28
2023-02-13T00:14:39.649Z,35.33
2023-02-13T00:16:41.604Z,36.63
2023-02-13T00:18:43.553Z,39.63
2023-02-13T00:20:46.203Z,36.45
2023-02-13T00:22:48.173Z,40.78
2023-02-13T00:24:51.761Z,41.85
2023-02-13T00:26:53.816Z,38.55
2023-02-13T00:28:57.137Z,36.17
2023-02-13T00:31:04.480Z,37.35
2023-02-13T00:33:06.609Z,38.83
2023-02-13T00:35:08.657Z,38.17
2023-02-13T00:37:10.633Z,39.75
2023-02-13T00:39:12.774Z,39.92
2023-02-13T00:41:16.746Z,43.75
2023-02-13T00:43:20.334Z,37.63
2023-02-13T00:45:22.431Z,40.55
2023-02-13T00:47:24.380Z,35.45
2023-02-13T00:49:26.337Z,34.72
2023-02-13T00:51:28.428Z,36.33
2023-02-13T00:53:31.051Z,34.03
2023-02-13T00:55:34.181Z,36.85
2023-02-13T00:57:36.183Z,40.08
2023-02-13T00:59:38.131Z,38.75
2023-02-13T01:01:40.265Z,41.42
2023-02-13T01:03:42.486Z,42.88
2023-02-13T01:05:45.307Z,37.17
2023-02-13T01:07:47.380Z,40.55
2023-02-13T01:09:49.332Z,43.05
2023-02-13T01:11:51.296Z,42.25
2023-02-13T01:13:53.248Z,39.25
2023-02-13T01:15:55.379Z,39.38
2023-02-13T01:17:57.675Z,37.38
2023-02-13T01:19:59.640Z,36.95
2023-02-13T01:22:01.687Z,40.03
2023-02-13T01:24:05.304Z,40.38
2023-02-13T01:26:09.423Z,38.55
2023-02-13T01:28:11.418Z,35.28
2023-02-13T01:30:14.965Z,39.78
2023-02-13T01:32:17.048Z,35.80
2023-02-13T01:34:19.393Z,35.40
2023-02-13T01:36:21.362Z,39.60
2023-02-13T01:38:23.364Z,37.03
2023-02-13T01:40:25.329Z,36.90
2023-02-13T01:42:30.452Z,36.85
2023-02-13T01:44:38.672Z,40.05
2023-02-13T01:46:44.233Z,37.13
2023-02-13T01:48:48.542Z,37.28
2023-02-13T01:50:57.762Z,32.63
2023-02-13T01:53:05.931Z,36.38
2023-02-13T01:55:10.935Z,32.10
2023-02-13T01:57:19.219Z,29.77
2023-02-13T01:59:27.268Z,34.38
2023-02-13T02:01:30.914Z,30.92
2023-02-13T02:03:40.269Z,26.48
2023-02-13T02:05:43.348Z,33.15
2023-02-13T02:07:46.282Z,31.63
2023-02-13T02:09:48.942Z,32.05
2023-02-13T02:11:56.579Z,29.73
2023-02-13T02:13:59.156Z,29.00
2023-02-13T02:16:01.557Z,26.38
2023-02-13T02:18:03.829Z,29.90
2023-02-13T02:20:10.659Z,28.13
2023-02-13T02:22:16.192Z,27.65
2023-02-13T02:24:28.049Z,28.73
2023-02-13T02:26:36.221Z,28.52
2023-02-13T02:28:41.603Z,26.25
2023-02-13T02:30:56.097Z,26.42
2023-02-13T02:33:04.563Z,30.10
2023-02-13T02:35:10.298Z,27.85
2023-02-13T02:37:14.103Z,28.23
2023-02-13T02:39:25.198Z,30.23
2023-02-13T02:41:42.429Z,31.52
2023-02-13T02:43:47.930Z,34.95
2023-02-13T02:46:01.655Z,28.50
2023-02-13T02:48:11.883Z,27.95
2023-02-13T02:50:20.509Z,29.25
2023-02-13T02:52:31.762Z,30.92
2023-02-13T02:54:46.925Z,28.67
2023-02-13T02:56:50.582Z,28.40
2023-02-13T02:59:02.029Z,27.83
2023-02-13T03:01:13.169Z,27.85
2023-02-13T03:03:22.183Z,27.80
2023-02-13T03:05:33.048Z,29.17
2023-02-13T03:09:43.886Z,30.30
2023-02-13T03:11:53.059Z,28.63
2023-02-13T03:13:55.860Z,32.08
2023-02-13T03:16:03.603Z,29.15
2023-02-13T03:18:09.065Z,27.80
2023-02-13T03:20:18.644Z,30.33
2023-02-13T03:22:26.913Z,29.95
2023-02-13T03:24:35.818Z,26.45
2023-02-13T03:26:44.507Z,29.40
2023-02-13T03:28:53.057Z,28.17
2023-02-13T03:30:59.380Z,27.35
2023-02-13T03:33:07.729Z,27.30
2023-02-13T03:35:23.414Z,28.27
2023-02-13T03:37:34.760Z,30.30
2023-02-13T03:39:40.192Z,29.30
2023-02-13T03:41:52.987Z,33.03
2023-02-13T03:43:59.535Z,29.48
2023-02-13T03:46:03.592Z,29.92
2023-02-13T03:48:28.785Z,26.90
2023-02-13T03:50:30.885Z,30.63
2023-02-13T03:52:37.379Z,29.52
2023-02-13T03:54:49.340Z,32.85
2023-02-13T03:56:55.805Z,33.40
2023-02-13T03:59:02.556Z,36.03
2023-02-13T04:01:08.430Z,30.48
2023-02-13T04:03:13.810Z,34.83
2023-02-13T04:05:21.549Z,33.03
2023-02-13T04:07:29.138Z,33.70
2023-02-13T04:09:34.142Z,35.83
2023-02-13T04:11:39.487Z,35.05
2023-02-13T04:13:47.758Z,39.28
2023-02-13T04:15:56.345Z,34.65
2023-02-13T04:18:08.168Z,36.75
2023-02-13T04:20:12.270Z,37.25
2023-02-13T04:22:14.716Z,40.05
2023-02-13T04:24:16.667Z,44.83
2023-02-13T04:26:22.855Z,44.03
2023-02-13T04:28:24.832Z,42.30
2023-02-13T04:30:26.923Z,41.20
2023-02-13T04:32:29.276Z,42.15
2023-02-13T04:34:31.309Z,38.58
2023-02-13T04:36:33.261Z,41.30
2023-02-13T04:38:35.157Z,42.40
2023-02-13T04:40:37.129Z,44.67
2023-02-13T04:42:39.291Z,40.92
2023-02-13T04:44:41.334Z,42.60
2023-02-13T04:46:43.265Z,39.67
2023-02-13T04:48:45.179Z,39.50
2023-02-13T04:50:48.170Z,42.55
2023-02-13T04:52:55.686Z,41.88
2023-02-13T04:54:57.748Z,41.92
2023-02-13T04:56:59.781Z,45.35
2023-02-13T04:59:01.800Z,40.90
2023-02-13T05:01:11.197Z,47.42
2023-02-13T05:03:14.091Z,43.78
2023-02-13T05:05:16.307Z,44.72
2023-02-13T05:07:18.195Z,49.60
2023-02-13T05:09:20.260Z,43.67
2023-02-13T05:11:22.156Z,45.92
2023-02-13T05:13:24.080Z,49.13
2023-02-13T05:15:26.374Z,44.15
2023-02-13T05:17:28.468Z,46.30
2023-02-13T05:19:30.475Z,45.65
2023-02-13T05:21:35.536Z,44.65
2023-02-13T05:23:37.624Z,46.05
2023-02-13T05:25:41.831Z,49.42
2023-02-13T05:27:43.781Z,48.05
2023-02-13T05:29:45.737Z,47.42
2023-02-13T05:31:49.043Z,49.83
2023-02-13T05:33:51.048Z,44.80
2023-02-13T05:35:53.176Z,45.85
2023-02-13T05:37:55.103Z,53.53
2023-02-13T05:39:56.996Z,52.38
2023-02-13T05:41:59.698Z,50.53
2023-02-13T05:44:01.835Z,54.05
2023-02-13T05:46:05.637Z,56.47
2023-02-13T05:48:07.750Z,53.92
2023-02-13T05:50:10.414Z,50.97
2023-02-13T05:52:12.411Z,49.95
2023-02-13T05:54:14.642Z,55.88
2023-02-13T05:56:16.616Z,50.90
2023-02-13T05:58:20.390Z,52.05
2023-02-13T06:00:22.599Z,58.10
2023-02-13T06:02:24.772Z,52.47
2023-02-13T06:04:27.012Z,53.30
2023-02-13T06:06:29.092Z,52.47
2023-02-13T06:08:31.024Z,55.53
2023-02-13T06:10:32.919Z,50.00
2023-02-13T06:12:34.846Z,55.33
2023-02-13T06:14:36.808Z,53.63
2023-02-13T06:16:38.792Z,56.42
2023-02-13T06:18:40.998Z,54.45
2023-02-13T06:20:43.370Z,55.67
2023-02-13T06:22:49.007Z,58.08
2023-02-13T06:24:52.365Z,59.38
2023-02-13T06:26:54.422Z,53.58
2023-02-13T06:28:56.476Z,54.95
2023-02-13T06:30:58.903Z,54.83
2023-02-13T06:33:01.505Z,60.28
2023-02-13T06:35:05.468Z,59.42
2023-02-13T06:37:07.788Z,59.67
2023-02-13T06:39:12.431Z,52.50
2023-02-13T06:41:14.341Z,55.22
2023-02-13T06:43:17.883Z,60.63
2023-02-13T06:45:19.940Z,57.70
2023-02-13T06:47:21.955Z,56.47
2023-02-13T06:49:23.921Z,57.72
2023-02-13T06:51:25.928Z,55.85
2023-02-13T06:53:28.669Z,59.90
2023-02-13T06:55:30.737Z,58.33
2023-02-13T06:57:34.054Z,56.47
2023-02-13T06:59:36.008Z,50.47
2023-02-13T07:01:37.954Z,55.88
2023-02-13T07:03:40.070Z,58.55
2023-02-13T07:05:42.660Z,55.25
2023-02-13T07:07:44.860Z,55.42
2023-02-13T07:09:46.806Z,57.75
2023-02-13T07:11:48.838Z,56.53
2023-02-13T07:13:51.530Z,57.65
2023-02-13T07:15:53.529Z,55.90
2023-02-13T07:17:59.059Z,55.35
2023-02-13T07:20:01.211Z,57.22
2023-02-13T07:22:03.303Z,57.40
2023-02-13T07:24:07.960Z,51.60
2023-02-13T07:26:11.397Z,50.67
2023-02-13T07:28:13.714Z,53.65
2023-02-13T07:30:16.088Z,52.78
2023-02-13T07:32:18.078Z,52.45
2023-02-13T07:34:20.172Z,45.85
2023-02-13T07:36:22.178Z,46.33
2023-02-13T07:38:24.147Z,47.33
2023-02-13T07:40:26.210Z,52.17
2023-02-13T07:42:28.252Z,45.10
2023-02-13T07:44:30.708Z,49.03
2023-02-13T07:46:32.761Z,48.00
2023-02-13T07:48:34.896Z,46.05
2023-02-13T07:50:36.896Z,49.75
2023-02-13T07:52:39.119Z,44.25
2023-02-13T07:54:47.796Z,48.28
2023-02-13T07:56:50.002Z,48.20
2023-02-13T07:58:52.141Z,46.20
2023-02-13T08:00:54.155Z,47.55
2023-02-13T08:02:58.777Z,46.00
2023-02-13T08:05:00.861Z,43.20
2023-02-13T08:07:03.047Z,46.08
2023-02-13T08:09:08.216Z,41.97
2023-02-13T08:11:26.760Z,46.58
2023-02-13T08:13:29.362Z,48.70
2023-02-13T08:15:31.732Z,45.10
2023-02-13T08:17:33.768Z,50.05
2023-02-13T08:19:36.294Z,49.15
2023-02-13T08:21:38.416Z,44.00
2023-02-13T08:23:40.846Z,46.78
2023-02-13T08:25:43.079Z,42.28
2023-02-13T08:27:45.124Z,46.67
2023-02-13T08:29:49.297Z,39.92
2023-02-13T08:31:51.478Z,39.47
2023-02-13T08:33:53.620Z,42.35
2023-02-13T08:35:55.807Z,44.58
2023-02-13T08:38:01.615Z,45.13
2023-02-13T08:40:04.074Z,41.55
2023-02-13T08:42:06.164Z,42.88
2023-02-13T08:44:08.214Z,40.72
2023-02-13T08:46:10.753Z,41.28
2023-02-13T08:48:12.894Z,38.15
2023-02-13T08:50:15.094Z,37.72
2023-02-13T08:52:17.293Z,43.20
2023-02-13T08:54:19.354Z,38.83
2023-02-13T08:56:21.466Z,41.90
2023-02-13T08:58:24.281Z,42.05
2023-02-13T09:00:26.392Z,39.17
2023-02-13T09:02:28.537Z,41.55
2023-02-13T09:04:30.667Z,44.08
2023-02-13T09:06:32.771Z,39.63
2023-02-13T09:08:36.305Z,41.40
2023-02-13T09:10:39.399Z,39.47
2023-02-13T09:12:41.450Z,35.35
2023-02-13T09:14:43.611Z,38.10
2023-02-13T09:16:45.712Z,35.53
2023-02-13T09:18:48.817Z,36.20
2023-02-13T09:20:50.913Z,39.20
2023-02-13T09:22:54.977Z,40.83
2023-02-13T09:24:58.356Z,34.60
2023-02-13T09:27:00.523Z,39.05
2023-02-13T09:29:02.769Z,41.05
2023-02-13T09:31:10.024Z,35.78
2023-02-13T09:33:13.328Z,37.08
2023-02-13T09:35:16.569Z,36.95
2023-02-13T09:37:19.133Z,35.28
2023-02-13T09:39:21.337Z,38.97
2023-02-13T09:41:28.887Z,35.20
2023-02-13T09:43:34.377Z,38.75
2023-02-13T09:45:37.472Z,35.13
2023-02-13T09:47:43.805Z,37.45
2023-02-13T09:49:53.014Z,37.00
2023-02-13T09:51:57.681Z,31.35
2023-02-13T09:54:03.799Z,31.70
2023-02-13T09:56:10.862Z,36.05
2023-02-13T09:58:24.936Z,34.67
2023-02-13T10:00:34.806Z,37.42
2023-02-13T10:02:44.341Z,33.65
2023-02-13T10:04:48.193Z,34.95
2023-02-13T10:06:58.899Z,34.90
2023-02-13T10:09:09.652Z,36.65
2023-02-13T10:11:18.064Z,36.25
2023-02-13T10:13:26.353Z,32.42
2023-02-13T10:15:34.480Z,31.20
2023-02-13T10:17:41.964Z,34.67
2023-02-13T10:19:50.721Z,31.55
2023-02-13T10:21:58.384Z,31.92
2023-02-13T10:24:06.695Z,30.50
2023-02-13T10:26:20.113Z,31.25
2023-02-13T10:28:30.614Z,33.15
2023-02-13T10:30:37.226Z,32.13
2023-02-13T10:32:44.184Z,32.58
2023-02-13T10:34:47.399Z,29.52
2023-02-13T10:36:49.609Z,35.85
2023-02-13T10:38:56.147Z,28.52
2023-02-13T10:40:58.939Z,32.15
2023-02-13T10:43:07.418Z,29.65
2023-02-13T10:45:17.695Z,31.58
2023-02-13T10:47:34.447Z,25.55
2023-02-13T10:49:42.666Z,32.70
2023-02-13T10:51:55.493Z,26.98
2023-02-13T10:54:06.799Z,32.00
2023-02-13T10:56:12.861Z,28.67
2023-02-13T10:58:15.761Z,28.30
2023-02-13T11:00:23.101Z,32.85
2023-02-13T11:02:28.790Z,29.02
2023-02-13T11:04:31.223Z,29.27
2023-02-13T11:06:36.682Z,31.50
2023-02-13T11:08:43.832Z,29.92
2023-02-13T11:10:46.162Z,22.90
2023-02-13T11:12:49.330Z,31.95
2023-02-13T11:14:57.568Z,28.63
2023-02-13T11:17:04.476Z,28.23
2023-02-13T11:19:06.735Z,31.65
2023-02-13T11:21:15.282Z,31.73
2023-02-13T11:23:24.131Z,27.65
2023-02-13T11:25:31.439Z,26.90
2023-02-13T11:27:37.317Z,28.13
2023-02-13T11:29:54.194Z,27.45
2023-02-13T11:32:02.646Z,24.90
2023-02-13T11:34:10.887Z,23.75
2023-02-13T11:36:18.021Z,29.45
2023-02-13T11:38:23.572Z,25.23
2023-02-13T11:40:31.817Z,27.27
2023-02-13T11:42:37.243Z,24.17
2023-02-13T11:44:41.649Z,23.80
2023-02-13T11:46:48.403Z,28.60
2023-02-13T11:48:56.668Z,25.38
2023-02-13T11:50:59.135Z,23.38
2023-02-13T11:53:07.751Z,22.08
2023-02-13T11:55:15.995Z,26.55
2023-02-13T11:57:21.512Z,24.27
2023-02-13T11:59:25.658Z,22.85
2023-02-13T12:01:29.294Z,25.17
2023-02-13T12:03:32.441Z,24.35
2023-02-13T12:05:34.681Z,22.60
2023-02-13T12:07:36.883Z,21.20
2023-02-13T12:09:41.630Z,20.85
2023-02-13T12:11:49.017Z,24.95
2023-02-13T12:13:52.299Z,27.10
2023-02-13T12:16:02.888Z,20.45
2023-02-13T12:18:09.481Z,20.65
2023-02-13T12:20:16.446Z,20.30
2023-02-13T12:22:24.753Z,22.27
2023-02-13T12:24:30.349Z,21.63
2023-02-13T12:26:37.282Z,19.83
2023-02-13T12:28:55.449Z,21.40
2023-02-13T12:31:05.848Z,20.38
2023-02-13T12:33:11.494Z,25.75
2023-02-13T12:35:28.972Z,22.70
2023-02-13T12:37:34.452Z,25.85
2023-02-13T12:39:45.213Z,22.60
2023-02-13T12:43:56.600Z,23.50
2023-02-13T12:46:04.104Z,21.50
2023-02-13T12:48:09.733Z,21.27
2023-02-13T12:50:21.167Z,19.20
2023-02-13T12:52:29.335Z,20.20
2023-02-13T12:54:33.233Z,23.30
2023-02-13T12:56:42.013Z,24.30
2023-02-13T12:58:45.951Z,27.13
2023-02-13T13:00:49.299Z,20.20
2023-02-13T13:02:57.565Z,25.27
2023-02-13T13:05:06.301Z,23.08
2023-02-13T13:07:20.480Z,21.90
2023-02-13T13:09:27.041Z,21.90
2023-02-13T13:11:38.423Z,19.08
2023-02-13T13:13:49.350Z,19.73
2023-02-13T13:15:55.532Z,19.08
2023-02-13T13:18:01.125Z,20.48
2023-02-13T13:20:09.377Z,23.17
2023-02-13T13:22:20.285Z,19.52
2023-02-13T13:24:26.946Z,16.73
2023-02-13T13:26:34.127Z,18.67
2023-02-13T13:28:41.879Z,18.77
2023-02-13T13:30:44.442Z,17.00
2023-02-13T13:32:52.559Z,19.35
2023-02-13T13:34:56.400Z,19.30
2023-02-13T13:37:02.041Z,17.33
2023-02-13T13:39:16.477Z,18.05
2023-02-13T13:41:30.197Z,21.45
2023-02-13T13:43:39.812Z,18.55
2023-02-13T13:45:48.217Z,18.77
2023-02-13T13:47:54.862Z,16.50
2023-02-13T13:50:00.117Z,19.15
2023-02-13T13:52:08.369Z,18.58
2023-02-13T13:54:11.235Z,18.20
2023-02-13T13:56:13.577Z,22.88
2023-02-13T13:58:21.868Z,23.65
2023-02-13T14:00:28.182Z,17.35
2023-02-13T14:02:34.837Z,16.42
2023-02-13T14:04:41.779Z,18.52
2023-02-13T14:06:44.576Z,19.88
2023-02-13T14:08:47.696Z,22.92
2023-02-13T14:10:50.556Z,17.20
2023-02-13T14:12:56.095Z,18.02
2023-02-13T14:15:00.207Z,20.35
2023-02-13T14:17:02.757Z,20.02
2023-02-13T14:19:06.270Z,20.45
2023-02-13T14:21:08.534Z,17.83
2023-02-13T14:23:14.228Z,18.15
2023-02-13T14:25:22.773Z,21.25
2023-02-13T14:27:30.207Z,21.10
2023-02-13T14:29:33.992Z,21.45
2023-02-13T14:31:40.289Z,22.25
2023-02-13T14:33:43.015Z,20.25
2023-02-13T14:35:45.149Z,22.67
2023-02-13T14:37:52.046Z,19.33
2023-02-13T14:40:09.636Z,19.13
2023-02-13T14:42:17.939Z,17.35
2023-02-13T14:44:23.448Z,22.02
2023-02-13T14:46:31.779Z,20.65
2023-02-13T14:48:40.368Z,20.05
2023-02-13T14:50:49.253Z,19.77
2023-02-13T14:52:52.735Z,17.77
2023-02-13T14:55:01.021Z,19.20
2023-02-13T14:57:09.580Z,21.05
2023-02-13T14:59:17.978Z,19.98
2023-02-13T15:01:28.530Z,18.80
2023-02-13T15:03:38.688Z,22.88
2023-02-13T15:05:41.757Z,22.17
2023-02-13T15:07:49.300Z,19.90
2023-02-13T15:09:56.216Z,18.45
2023-02-13T15:11:59.279Z,22.73
2023-02-13T15:14:17.493Z,19.33
2023-02-13T15:16:19.715Z,17.83
2023-02-13T15:18:26.276Z,17.10
2023-02-13T15:20:33.250Z,18.05
2023-02-13T15:22:38.842Z,20.15
2023-02-13T15:24:46.369Z,16.38
2023-02-13T15:26:54.971Z,18.52
2023-02-13T15:28:59.655Z,19.40
2023-02-13T15:31:05.621Z,16.98
2023-02-13T15:33:12.214Z,17.67
2023-02-13T15:35:26.055Z,18.25
2023-02-13T15:37:30.648Z,20.48
2023-02-13T15:39:32.995Z,22.90
2023-02-13T15:41:39.055Z,20.00
2023-02-13T15:43:44.566Z,17.38
2023-02-13T15:45:46.771Z,20.02
2023-02-13T15:47:50.214Z,14.25
2023-02-13T15:49:52.594Z,16.85
2023-02-13T15:52:00.929Z,20.00
2023-02-13T15:54:06.074Z,17.40
2023-02-13T15:56:15.351Z,17.38
2023-02-13T15:58:17.487Z,18.10
2023-02-13T16:00:25.637Z,19.10
2023-02-13T16:02:33.980Z,17.55
2023-02-13T16:04:36.529Z,15.80
2023-02-13T16:06:39.191Z,17.75
2023-02-13T16:08:45.555Z,18.00
2023-02-13T16:10:47.962Z,16.75
2023-02-13T16:12:50.095Z,20.20
2023-02-13T16:14:55.469Z,15.23
2023-02-13T16:17:03.163Z,19.27
2023-02-13T16:19:05.391Z,17.08
2023-02-13T16:21:09.305Z,18.23
2023-02-13T16:23:17.689Z,19.83
2023-02-13T16:25:25.487Z,16.48
2023-02-13T16:27:28.822Z,18.15
2023-02-13T16:29:31.120Z,19.80
2023-02-13T16:31:33.454Z,16.15
2023-02-13T16:33:41.656Z,17.02
2023-02-13T16:35:49.294Z,17.13
2023-02-13T16:37:56.453Z,18.65
2023-02-13T16:40:20.357Z,18.40
2023-02-13T16:42:22.874Z,18.25
2023-02-13T16:44:30.270Z,21.73
2023-02-13T16:46:33.935Z,18.35
2023-02-13T16:48:36.588Z,19.25
2023-02-13T16:50:38.751Z,15.43
2023-02-13T16:52:41.088Z,19.60
2023-02-13T16:54:48.105Z,20.00
2023-02-13T16:56:52.642Z,16.33
2023-02-13T16:59:00.890Z,16.35
2023-02-13T17:01:04.939Z,19.05
2023-02-13T17:03:09.713Z,18.67
2023-02-13T17:05:12.460Z,20.35
2023-02-13T17:07:18.146Z,15.25
2023-02-13T17:09:20.557Z,18.95
2023-02-13T17:11:22.874Z,18.02
2023-02-13T17:13:25.682Z,17.88
2023-02-13T17:15:30.156Z,17.67
2023-02-13T17:17:33.060Z,19.58
2023-02-13T17:19:35.201Z,18.98
2023-02-13T17:21:37.575Z,19.35
2023-02-13T17:23:40.434Z,17.02
2023-02-13T17:25:43.742Z,16.75
2023-02-13T17:27:45.801Z,17.08
2023-02-13T17:29:48.006Z,24.02
2023-02-13T17:31:55.787Z,26.30
2023-02-13T17:33:57.953Z,20.63
2023-02-13T17:36:00.083Z,22.48
2023-02-13T17:38:02.532Z,20.13
2023-02-13T17:40:05.343Z,23.23
2023-02-13T17:42:15.309Z,22.13
2023-02-13T17:44:17.532Z,24.90
2023-02-13T17:46:19.879Z,22.63
2023-02-13T17:48:22.013Z,23.77
2023-02-13T17:50:25.223Z,25.13
2023-02-13T17:52:29.150Z,24.40
2023-02-13T17:54:33.218Z,23.23
2023-02-13T17:56:35.406Z,24.35
2023-02-13T17:58:37.521Z,24.73
2023-02-13T18:00:39.713Z,28.65
2023-02-13T18:02:42.785Z,26.58
2023-02-13T18:04:45.370Z,29.92
2023-02-13T18:06:51.927Z,30.70
2023-02-13T18:08:53.968Z,30.05
2023-02-13T18:10:56.410Z,29.70
2023-02-13T18:13:04.514Z,28.23
2023-02-13T18:15:07.249Z,31.48
2023-02-13T18:17:10.607Z,29.17
2023-02-13T18:19:14.137Z,28.83
2023-02-13T18:21:16.270Z,32.33
2023-02-13T18:23:18.414Z,29.42
2023-02-13T18:25:21.445Z,31.20
2023-02-13T18:27:25.537Z,31.73
2023-02-13T18:29:27.947Z,28.88
2023-02-13T18:31:30.488Z,24.05
2023-02-13T18:33:32.868Z,31.70
2023-02-13T18:35:36.726Z,29.17
2023-02-13T18:37:39.448Z,32.28
2023-02-13T18:39:41.554Z,29.80
2023-02-13T18:41:43.989Z,27.83
2023-02-13T18:43:46.204Z,28.98
2023-02-13T18:45:48.552Z,34.40
2023-02-13T18:47:50.650Z,31.65
2023-02-13T18:49:52.817Z,34.72
2023-02-13T18:51:54.893Z,33.85
2023-02-13T18:53:57.349Z,31.63
2023-02-13T18:56:01.477Z,30.27
2023-02-13T18:58:03.646Z,30.52
2023-02-13T19:00:07.418Z,32.22
2023-02-13T19:02:10.780Z,32.60
2023-02-13T19:04:12.974Z,33.67
2023-02-13T19:06:19.306Z,34.63
2023-02-13T19:08:21.331Z,30.27
2023-02-13T19:10:23.490Z,33.05
2023-02-13T19:12:25.515Z,35.70
2023-02-13T19:14:27.557Z,32.95
2023-02-13T19:16:31.372Z,32.90
2023-02-13T19:18:37.191Z,33.15
2023-02-13T19:20:41.452Z,32.70
2023-02-13T19:22:43.493Z,29.73
2023-02-13T19:24:45.545Z,33.03
2023-02-13T19:26:47.717Z,35.58
2023-02-13T19:28:50.677Z,32.88
2023-02-13T19:30:52.803Z,38.22
2023-02-13T19:32:55.090Z,37.92
2023-02-13T19:34:57.056Z,35.17
2023-02-13T19:36:59.079Z,33.65
2023-02-13T19:39:04.018Z,32.30
2023-02-13T19:41:08.382Z,39.22
2023-02-13T19:43:10.913Z,35.05
2023-02-13T19:45:12.992Z,32.50
2023-02-13T19:47:15.026Z,37.85
2023-02-13T19:49:17.085Z,33.85
2023-02-13T19:51:21.660Z,32.53
2023-02-13T19:53:23.665Z,36.45
2023-02-13T19:55:27.318Z,36.65
2023-02-13T19:57:29.316Z,37.55
2023-02-13T19:59:32.837Z,36.70
2023-02-13T20:01:34.994Z,34.42
2023-02-13T20:03:37.040Z,33.65
2023-02-13T20:05:40.101Z,37.90
2023-02-13T20:07:42.235Z,34.95
2023-02-13T20:09:44.248Z,32.17
2023-02-13T20:11:46.424Z,36.05
2023-02-13T20:13:52.840Z,39.35
2023-02-13T20:15:55.364Z,36.10
2023-02-13T20:17:57.461Z,38.33
2023-02-13T20:19:59.559Z,38.78
2023-02-13T20:22:01.921Z,34.50
2023-02-13T20:24:05.059Z,39.03
2023-02-13T20:26:11.174Z,35.65
2023-02-13T20:28:13.200Z,35.17
2023-02-13T20:30:16.742Z,34.88
2023-02-13T20:32:18.845Z,29.85
2023-02-13T20:34:20.913Z,31.30
2023-02-13T20:36:25.613Z,30.98
2023-02-13T20:38:27.532Z,38.20
2023-02-13T20:40:29.582Z,34.20
2023-02-13T20:42:33.852Z,32.58
2023-02-13T20:44:36.030Z,34.38
2023-02-13T20:46:39.923Z,35.55
2023-02-13T20:48:43.516Z,30.65
2023-02-13T20:50:45.680Z,33.80
2023-02-13T20:52:47.807Z,36.67
2023-02-13T20:54:49.845Z,32.08
2023-02-13T20:56:51.955Z,31.73
2023-02-13T20:58:57.846Z,32.05
2023-02-13T21:01:02.208Z,31.92
2023-02-13T21:03:06.620Z,32.88
2023-02-13T21:05:09.557Z,33.22
2023-02-13T21:07:11.847Z,35.08
2023-02-13T21:09:15.515Z,34.50
2023-02-13T21:11:21.295Z,32.72
2023-02-13T21:13:26.597Z,33.47
2023-02-13T21:15:30.833Z,33.78
2023-02-13T21:17:35.087Z,35.88
2023-02-13T21:19:39.007Z,34.63
2023-02-13T21:21:46.227Z,36.85
2023-02-13T21:23:53.650Z,31.15
2023-02-13T21:25:58.929Z,34.45
2023-02-13T21:28:04.258Z,35.80
2023-02-13T21:30:08.052Z,34.33
2023-02-13T21:32:11.588Z,33.60
2023-02-13T21:34:16.540Z,35.35
2023-02-13T21:36:20.909Z,35.17
2023-02-13T21:38:24.343Z,31.85
2023-02-13T21:40:26.569Z,33.35
2023-02-13T21:42:28.610Z,31.00
2023-02-13T21:44:30.614Z,38.17
2023-02-13T21:46:33.566Z,32.40
2023-02-13T21:48:35.600Z,36.72
2023-02-13T21:50:38.208Z,29.90
2023-02-13T21:52:40.375Z,31.15
2023-02-13T21:54:43.539Z,29.55
2023-02-13T21:56:45.680Z,31.15
2023-02-13T21:58:48.247Z,29.80
2023-02-13T22:00:50.395Z,33.83
2023-02-13T22:02:52.479Z,35.28
2023-02-13T22:04:54.592Z,30.58
2023-02-13T22:06:56.646Z,35.65
2023-02-13T22:09:01.661Z,34.35
2023-02-13T22:11:04.139Z,32.22
2023-02-13T22:13:07.386Z,33.38
2023-02-13T22:15:10.420Z,29.23
2023-02-13T22:17:12.500Z,32.33
2023-02-13T22:19:16.177Z,34.33
2023-02-13T22:21:20.469Z,33.58
2023-02-13T22:23:22.364Z,30.92
2023-02-13T22:25:24.248Z,28.73
2023-02-13T22:27:43.468Z,31.60
2023-02-13T22:29:48.335Z,32.65
2023-02-13T22:31:50.693Z,30.90
2023-02-13T22:34:03.360Z,35.15
2023-02-13T22:36:06.604Z,35.40
2023-02-13T22:38:08.903Z,33.45
2023-02-13T22:40:11.609Z,33.00
2023-02-13T22:42:14.375Z,32.80
2023-02-13T22:44:16.664Z,31.92
2023-02-13T22:46:23.080Z,34.13
2023-02-13T22:48:24.930Z,31.95
2023-02-13T22:50:26.762Z,33.63
2023-02-13T22:52:28.951Z,33.03
2023-02-13T22:54:31.564Z,32.92
2023-02-13T22:56:34.568Z,34.13
2023-02-13T22:58:36.693Z,35.63
2023-02-13T23:00:39.470Z,34.90
2023-02-13T23:02:41.525Z,33.53
2023-02-13T23:04:47.618Z,33.05
2023-02-13T23:06:50.146Z,32.67
2023-02-13T23:08:53.754Z,33.80
2023-02-13T23:10:59.457Z,36.58
2023-02-13T23:13:01.964Z,33.85
2023-02-13T23:15:08.638Z,34.45
2023-02-13T23:17:14.126Z,41.38
2023-02-13T23:19:16.240Z,36.78
2023-02-13T23:21:18.717Z,38.13
2023-02-13T23:23:21.386Z,40.28
2023-02-13T23:25:25.926Z,37.13
2023-02-13T23:27:28.766Z,35.35
2023-02-13T23:29:30.888Z,39.63
2023-02-13T23:31:34.553Z,39.88
2023-02-13T23:33:36.594Z,36.28
2023-02-13T23:35:38.565Z,35.25
2023-02-13T23:37:40.747Z,36.28
2023-02-13T23:39:42.894Z,35.90
2023-02-13T23:41:45.070Z,39.47
2023-02-13T23:43:47.044Z,39.95
2023-02-13T23:45:50.054Z,38.15
2023-02-13T23:47:52.355Z,39.92
2023-02-13T23:49:54.304Z,41.72
2023-02-13T23:51:57.305Z,40.63
2023-02-13T23:54:00.619Z,37.45
2023-02-13T23:56:03.628Z,40.72
2023-02-13T23:58:05.646Z,37.45
